sensor_id;sensor_type;location;lat;lon;timestamp;P1;durP1;ratioP1;P2;durP2;ratioP2
74963;SDS011;63521;51.900;4.748;2023-02-05T00:01:12;2.70;;;1.52;;
74963;SDS011;63521;51.900;4.748;2023-02-05T00:03:38;2.30;;;1.67;;
74963;SDS011;63521;51.900;4.748;2023-02-05T00:06:04;3.33;;;1.77;;
74963;SDS011;63521;51.900;4.748;2023-02-05T00:08:29;3.38;;;1.50;;
74963;SDS011;63521;51.900;4.748;2023-02-05T00:10:55;2.05;;;1.30;;
74963;SDS011;63521;51.900;4.748;2023-02-05T00:13:21;2.92;;;1.50;;
74963;SDS011;63521;51.900;4.748;2023-02-05T00:15:46;2.67;;;1.50;;
74963;SDS011;63521;51.900;4.748;2023-02-05T00:18:11;1.83;;;1.33;;
74963;SDS011;63521;51.900;4.748;2023-02-05T00:20:37;2.65;;;1.60;;
74963;SDS011;63521;51.900;4.748;2023-02-05T00:23:03;2.28;;;1.45;;
74963;SDS011;63521;51.900;4.748;2023-02-05T00:25:28;3.33;;;1.60;;
74963;SDS011;63521;51.900;4.748;2023-02-05T00:27:53;2.25;;;1.60;;
74963;SDS011;63521;51.900;4.748;2023-02-05T00:30:19;2.90;;;1.40;;
74963;SDS011;63521;51.900;4.748;2023-02-05T00:32:44;2.40;;;1.20;;
74963;SDS011;63521;51.900;4.748;2023-02-05T00:35:10;2.65;;;1.48;;
74963;SDS011;63521;51.900;4.748;2023-02-05T00:37:35;3.05;;;1.60;;
74963;SDS011;63521;51.900;4.748;2023-02-05T00:40:01;2.20;;;1.33;;
74963;SDS011;63521;51.900;4.748;2023-02-05T00:42:26;1.58;;;1.40;;
74963;SDS011;63521;51.900;4.748;2023-02-05T00:44:52;1.80;;;1.25;;
74963;SDS011;63521;51.900;4.748;2023-02-05T00:47:17;2.30;;;1.48;;
74963;SDS011;63521;51.900;4.748;2023-02-05T00:49:43;3.70;;;1.65;;
74963;SDS011;63521;51.900;4.748;2023-02-05T00:52:08;2.15;;;1.45;;
74963;SDS011;63521;51.900;4.748;2023-02-05T00:54:34;2.83;;;1.40;;
74963;SDS011;63521;51.900;4.748;2023-02-05T00:56:59;1.95;;;1.30;;
74963;SDS011;63521;51.900;4.748;2023-02-05T00:59:24;2.70;;;1.65;;
74963;SDS011;63521;51.900;4.748;2023-02-05T01:01:50;1.85;;;1.50;;
74963;SDS011;63521;51.900;4.748;2023-02-05T01:04:15;2.90;;;1.60;;
74963;SDS011;63521;51.900;4.748;2023-02-05T01:06:41;3.00;;;1.60;;
74963;SDS011;63521;51.900;4.748;2023-02-05T01:09:06;1.63;;;1.10;;
74963;SDS011;63521;51.900;4.748;2023-02-05T01:11:31;2.17;;;1.33;;
74963;SDS011;63521;51.900;4.748;2023-02-05T01:13:57;2.58;;;1.20;;
74963;SDS011;63521;51.900;4.748;2023-02-05T01:16:22;2.50;;;1.58;;
74963;SDS011;63521;51.900;4.748;2023-02-05T01:18:48;2.08;;;1.40;;
74963;SDS011;63521;51.900;4.748;2023-02-05T01:21:13;2.78;;;1.60;;
74963;SDS011;63521;51.900;4.748;2023-02-05T01:23:38;2.88;;;1.58;;
74963;SDS011;63521;51.900;4.748;2023-02-05T01:26:04;1.83;;;1.33;;
74963;SDS011;63521;51.900;4.748;2023-02-05T01:28:30;3.63;;;1.58;;
74963;SDS011;63521;51.900;4.748;2023-02-05T01:30:55;2.10;;;1.33;;
74963;SDS011;63521;51.900;4.748;2023-02-05T01:33:21;1.60;;;1.35;;
74963;SDS011;63521;51.900;4.748;2023-02-05T01:35:46;1.95;;;1.38;;
74963;SDS011;63521;51.900;4.748;2023-02-05T01:38:12;1.77;;;1.30;;
74963;SDS011;63521;51.900;4.748;2023-02-05T01:40:38;2.42;;;1.40;;
74963;SDS011;63521;51.900;4.748;2023-02-05T01:43:05;2.42;;;1.60;;
74963;SDS011;63521;51.900;4.748;2023-02-05T01:48:28;2.75;;;1.20;;
74963;SDS011;63521;51.900;4.748;2023-02-05T01:50:58;2.05;;;1.38;;
74963;SDS011;63521;51.900;4.748;2023-02-05T01:53:30;1.65;;;1.30;;
74963;SDS011;63521;51.900;4.748;2023-02-05T01:55:58;2.13;;;1.20;;
74963;SDS011;63521;51.900;4.748;2023-02-05T01:58:25;1.92;;;1.30;;
74963;SDS011;63521;51.900;4.748;2023-02-05T02:00:52;2.15;;;1.40;;
74963;SDS011;63521;51.900;4.748;2023-02-05T02:03:18;2.40;;;1.45;;
74963;SDS011;63521;51.900;4.748;2023-02-05T02:05:44;2.90;;;1.50;;
74963;SDS011;63521;51.900;4.748;2023-02-05T02:08:11;1.92;;;1.38;;
74963;SDS011;63521;51.900;4.748;2023-02-05T02:10:37;2.42;;;1.40;;
74963;SDS011;63521;51.900;4.748;2023-02-05T02:13:04;2.30;;;1.52;;
74963;SDS011;63521;51.900;4.748;2023-02-05T02:15:29;1.98;;;1.33;;
74963;SDS011;63521;51.900;4.748;2023-02-05T02:17:56;2.58;;;1.30;;
74963;SDS011;63521;51.900;4.748;2023-02-05T02:20:54;2.88;;;1.65;;
74963;SDS011;63521;51.900;4.748;2023-02-05T02:26:25;2.67;;;1.35;;
74963;SDS011;63521;51.900;4.748;2023-02-05T02:29:04;1.85;;;1.27;;
74963;SDS011;63521;51.900;4.748;2023-02-05T02:31:32;1.98;;;1.30;;
74963;SDS011;63521;51.900;4.748;2023-02-05T02:39:32;1.80;;;1.35;;
74963;SDS011;63521;51.900;4.748;2023-02-05T02:42:08;2.85;;;1.60;;
74963;SDS011;63521;51.900;4.748;2023-02-05T02:45:21;2.00;;;1.17;;
74963;SDS011;63521;51.900;4.748;2023-02-05T02:47:37;2.53;;;1.33;;
74963;SDS011;63521;51.900;4.748;2023-02-05T02:50:06;2.50;;;1.50;;
74963;SDS011;63521;51.900;4.748;2023-02-05T02:52:35;1.70;;;1.10;;
74963;SDS011;63521;51.900;4.748;2023-02-05T02:55:05;1.45;;;1.10;;
74963;SDS011;63521;51.900;4.748;2023-02-05T02:57:34;1.52;;;1.17;;
74963;SDS011;63521;51.900;4.748;2023-02-05T03:00:01;1.95;;;1.23;;
74963;SDS011;63521;51.900;4.748;2023-02-05T03:02:31;1.92;;;1.20;;
74963;SDS011;63521;51.900;4.748;2023-02-05T03:05:00;1.75;;;1.30;;
74963;SDS011;63521;51.900;4.748;2023-02-05T03:07:29;2.17;;;1.23;;
74963;SDS011;63521;51.900;4.748;2023-02-05T03:10:10;1.60;;;1.13;;
74963;SDS011;63521;51.900;4.748;2023-02-05T03:12:40;1.90;;;1.17;;
74963;SDS011;63521;51.900;4.748;2023-02-05T03:15:06;1.63;;;1.10;;
74963;SDS011;63521;51.900;4.748;2023-02-05T03:17:32;1.63;;;1.10;;
74963;SDS011;63521;51.900;4.748;2023-02-05T03:19:59;1.23;;;1.05;;
74963;SDS011;63521;51.900;4.748;2023-02-05T03:22:28;3.22;;;1.30;;
74963;SDS011;63521;51.900;4.748;2023-02-05T03:24:54;2.65;;;1.35;;
74963;SDS011;63521;51.900;4.748;2023-02-05T03:27:20;1.55;;;1.00;;
74963;SDS011;63521;51.900;4.748;2023-02-05T03:29:46;1.10;;;0.98;;
74963;SDS011;63521;51.900;4.748;2023-02-05T03:32:35;0.93;;;0.90;;
74963;SDS011;63521;51.900;4.748;2023-02-05T03:48:15;1.33;;;1.15;;
74963;SDS011;63521;51.900;4.748;2023-02-05T03:53:38;1.75;;;1.17;;
74963;SDS011;63521;51.900;4.748;2023-02-05T03:56:22;1.90;;;1.42;;
74963;SDS011;63521;51.900;4.748;2023-02-05T03:58:51;1.75;;;1.27;;
74963;SDS011;63521;51.900;4.748;2023-02-05T04:01:19;2.33;;;1.30;;
74963;SDS011;63521;51.900;4.748;2023-02-05T04:03:45;1.95;;;1.30;;
74963;SDS011;63521;51.900;4.748;2023-02-05T04:06:10;3.20;;;1.50;;
74963;SDS011;63521;51.900;4.748;2023-02-05T04:08:36;2.30;;;1.40;;
74963;SDS011;63521;51.900;4.748;2023-02-05T04:11:01;1.35;;;1.10;;
74963;SDS011;63521;51.900;4.748;2023-02-05T04:13:27;3.85;;;1.38;;
74963;SDS011;63521;51.900;4.748;2023-02-05T04:15:52;2.05;;;1.58;;
74963;SDS011;63521;51.900;4.748;2023-02-05T04:18:18;2.47;;;1.30;;
74963;SDS011;63521;51.900;4.748;2023-02-05T04:20:43;1.92;;;1.50;;
74963;SDS011;63521;51.900;4.748;2023-02-05T04:23:09;3.35;;;1.38;;
74963;SDS011;63521;51.900;4.748;2023-02-05T04:25:35;2.38;;;1.60;;
74963;SDS011;63521;51.900;4.748;2023-02-05T04:28:01;4.75;;;1.83;;
74963;SDS011;63521;51.900;4.748;2023-02-05T04:30:26;3.00;;;1.73;;
74963;SDS011;63521;51.900;4.748;2023-02-05T04:32:52;1.60;;;1.27;;
74963;SDS011;63521;51.900;4.748;2023-02-05T04:35:17;3.38;;;1.98;;
74963;SDS011;63521;51.900;4.748;2023-02-05T04:37:42;2.45;;;1.75;;
74963;SDS011;63521;51.900;4.748;2023-02-05T04:40:08;3.15;;;1.63;;
74963;SDS011;63521;51.900;4.748;2023-02-05T04:42:34;2.25;;;1.60;;
74963;SDS011;63521;51.900;4.748;2023-02-05T04:44:59;3.45;;;1.80;;
74963;SDS011;63521;51.900;4.748;2023-02-05T04:47:24;2.92;;;1.60;;
74963;SDS011;63521;51.900;4.748;2023-02-05T04:49:50;3.90;;;1.55;;
74963;SDS011;63521;51.900;4.748;2023-02-05T04:52:15;3.38;;;1.67;;
74963;SDS011;63521;51.900;4.748;2023-02-05T04:54:40;2.08;;;1.35;;
74963;SDS011;63521;51.900;4.748;2023-02-05T04:57:06;2.20;;;1.55;;
74963;SDS011;63521;51.900;4.748;2023-02-05T04:59:31;2.38;;;1.40;;
74963;SDS011;63521;51.900;4.748;2023-02-05T05:01:57;2.30;;;1.67;;
74963;SDS011;63521;51.900;4.748;2023-02-05T05:04:23;3.22;;;1.40;;
74963;SDS011;63521;51.900;4.748;2023-02-05T05:06:49;1.85;;;1.20;;
74963;SDS011;63521;51.900;4.748;2023-02-05T05:09:14;1.90;;;1.17;;
74963;SDS011;63521;51.900;4.748;2023-02-05T05:11:40;2.60;;;1.40;;
74963;SDS011;63521;51.900;4.748;2023-02-05T05:14:05;3.55;;;1.23;;
74963;SDS011;63521;51.900;4.748;2023-02-05T05:16:31;3.40;;;1.27;;
74963;SDS011;63521;51.900;4.748;2023-02-05T05:18:56;2.05;;;1.30;;
74963;SDS011;63521;51.900;4.748;2023-02-05T05:21:22;2.88;;;1.38;;
74963;SDS011;63521;51.900;4.748;2023-02-05T05:23:47;5.63;;;1.35;;
74963;SDS011;63521;51.900;4.748;2023-02-05T05:26:12;1.52;;;1.10;;
74963;SDS011;63521;51.900;4.748;2023-02-05T05:28:38;2.70;;;1.10;;
74963;SDS011;63521;51.900;4.748;2023-02-05T05:31:07;2.88;;;1.05;;
74963;SDS011;63521;51.900;4.748;2023-02-05T05:36:00;1.40;;;0.68;;
74963;SDS011;63521;51.900;4.748;2023-02-05T05:38:26;2.33;;;1.35;;
74963;SDS011;63521;51.900;4.748;2023-02-05T05:40:52;2.38;;;1.10;;
74963;SDS011;63521;51.900;4.748;2023-02-05T05:43:36;3.28;;;1.20;;
74963;SDS011;63521;51.900;4.748;2023-02-05T05:46:10;2.55;;;0.85;;
74963;SDS011;63521;51.900;4.748;2023-02-05T05:48:36;3.22;;;0.90;;
74963;SDS011;63521;51.900;4.748;2023-02-05T05:51:02;4.25;;;0.90;;
74963;SDS011;63521;51.900;4.748;2023-02-05T05:53:27;2.05;;;0.73;;
74963;SDS011;63521;51.900;4.748;2023-02-05T05:55:53;2.13;;;0.80;;
74963;SDS011;63521;51.900;4.748;2023-02-05T05:58:18;4.68;;;0.75;;
74963;SDS011;63521;51.900;4.748;2023-02-05T06:00:43;2.45;;;0.90;;
74963;SDS011;63521;51.900;4.748;2023-02-05T06:03:09;1.17;;;0.65;;
74963;SDS011;63521;51.900;4.748;2023-02-05T06:05:35;2.70;;;0.90;;
74963;SDS011;63521;51.900;4.748;2023-02-05T06:08:00;2.50;;;0.77;;
74963;SDS011;63521;51.900;4.748;2023-02-05T06:10:26;2.53;;;0.75;;
74963;SDS011;63521;51.900;4.748;2023-02-05T06:12:51;4.40;;;0.60;;
74963;SDS011;63521;51.900;4.748;2023-02-05T06:15:17;2.60;;;0.70;;
74963;SDS011;63521;51.900;4.748;2023-02-05T06:17:43;1.52;;;0.55;;
74963;SDS011;63521;51.900;4.748;2023-02-05T06:20:09;2.20;;;0.75;;
74963;SDS011;63521;51.900;4.748;2023-02-05T06:22:35;1.45;;;0.52;;
74963;SDS011;63521;51.900;4.748;2023-02-05T06:25:00;2.70;;;0.80;;
74963;SDS011;63521;51.900;4.748;2023-02-05T06:27:26;3.28;;;0.63;;
74963;SDS011;63521;51.900;4.748;2023-02-05T06:29:52;1.48;;;0.60;;
74963;SDS011;63521;51.900;4.748;2023-02-05T06:32:17;1.95;;;0.50;;
74963;SDS011;63521;51.900;4.748;2023-02-05T06:34:42;2.78;;;0.68;;
74963;SDS011;63521;51.900;4.748;2023-02-05T06:37:08;2.30;;;0.68;;
74963;SDS011;63521;51.900;4.748;2023-02-05T06:39:33;1.23;;;0.38;;
74963;SDS011;63521;51.900;4.748;2023-02-05T06:41:59;2.47;;;0.38;;
74963;SDS011;63521;51.900;4.748;2023-02-05T06:44:24;2.83;;;0.80;;
74963;SDS011;63521;51.900;4.748;2023-02-05T06:46:50;2.20;;;0.50;;
74963;SDS011;63521;51.900;4.748;2023-02-05T06:49:15;2.13;;;0.50;;
74963;SDS011;63521;51.900;4.748;2023-02-05T06:51:41;3.22;;;0.50;;
74963;SDS011;63521;51.900;4.748;2023-02-05T06:54:06;2.22;;;0.52;;
74963;SDS011;63521;51.900;4.748;2023-02-05T06:56:31;2.90;;;0.47;;
74963;SDS011;63521;51.900;4.748;2023-02-05T06:58:57;2.85;;;0.50;;
74963;SDS011;63521;51.900;4.748;2023-02-05T07:01:23;3.65;;;0.60;;
74963;SDS011;63521;51.900;4.748;2023-02-05T07:03:48;1.63;;;0.52;;
74963;SDS011;63521;51.900;4.748;2023-02-05T07:06:18;1.75;;;0.68;;
74963;SDS011;63521;51.900;4.748;2023-02-05T07:08:44;3.75;;;0.73;;
74963;SDS011;63521;51.900;4.748;2023-02-05T07:11:10;1.85;;;0.47;;
74963;SDS011;63521;51.900;4.748;2023-02-05T07:35:24;3.67;;;0.63;;
74963;SDS011;63521;51.900;4.748;2023-02-05T07:37:49;4.15;;;0.52;;
74963;SDS011;63521;51.900;4.748;2023-02-05T07:40:15;2.92;;;0.70;;
74963;SDS011;63521;51.900;4.748;2023-02-05T07:42:40;2.25;;;0.60;;
74963;SDS011;63521;51.900;4.748;2023-02-05T07:45:05;4.75;;;0.70;;
74963;SDS011;63521;51.900;4.748;2023-02-05T07:47:31;1.55;;;0.50;;
74963;SDS011;63521;51.900;4.748;2023-02-05T07:49:57;5.00;;;0.90;;
74963;SDS011;63521;51.900;4.748;2023-02-05T07:52:22;2.85;;;0.77;;
74963;SDS011;63521;51.900;4.748;2023-02-05T07:54:47;3.65;;;0.98;;
74963;SDS011;63521;51.900;4.748;2023-02-05T07:57:13;4.25;;;0.88;;
74963;SDS011;63521;51.900;4.748;2023-02-05T07:59:38;3.72;;;0.90;;
74963;SDS011;63521;51.900;4.748;2023-02-05T08:02:04;1.83;;;0.80;;
74963;SDS011;63521;51.900;4.748;2023-02-05T08:04:29;4.32;;;0.80;;
74963;SDS011;63521;51.900;4.748;2023-02-05T08:06:55;3.65;;;1.23;;
74963;SDS011;63521;51.900;4.748;2023-02-05T08:09:20;3.10;;;0.90;;
74963;SDS011;63521;51.900;4.748;2023-02-05T08:11:45;5.85;;;1.20;;
74963;SDS011;63521;51.900;4.748;2023-02-05T08:14:12;3.65;;;0.93;;
74963;SDS011;63521;51.900;4.748;2023-02-05T08:16:37;4.35;;;1.13;;
74963;SDS011;63521;51.900;4.748;2023-02-05T08:19:03;4.63;;;1.00;;
74963;SDS011;63521;51.900;4.748;2023-02-05T08:22:16;3.53;;;0.63;;
74963;SDS011;63521;51.900;4.748;2023-02-05T08:24:41;4.80;;;1.08;;
74963;SDS011;63521;51.900;4.748;2023-02-05T08:27:07;1.90;;;0.77;;
74963;SDS011;63521;51.900;4.748;2023-02-05T08:29:32;5.75;;;1.17;;
74963;SDS011;63521;51.900;4.748;2023-02-05T08:31:58;4.85;;;1.00;;
74963;SDS011;63521;51.900;4.748;2023-02-05T08:34:23;3.33;;;0.80;;
74963;SDS011;63521;51.900;4.748;2023-02-05T08:36:49;6.80;;;1.48;;
74963;SDS011;63521;51.900;4.748;2023-02-05T08:39:15;4.82;;;0.77;;
74963;SDS011;63521;51.900;4.748;2023-02-05T08:41:40;6.78;;;1.33;;
74963;SDS011;63521;51.900;4.748;2023-02-05T08:44:05;3.25;;;1.67;;
74963;SDS011;63521;51.900;4.748;2023-02-05T08:46:31;7.13;;;1.30;;
74963;SDS011;63521;51.900;4.748;2023-02-05T08:48:57;9.77;;;1.27;;
74963;SDS011;63521;51.900;4.748;2023-02-05T08:51:23;7.50;;;1.25;;
74963;SDS011;63521;51.900;4.748;2023-02-05T08:53:48;8.98;;;1.33;;
74963;SDS011;63521;51.900;4.748;2023-02-05T08:56:14;8.18;;;1.23;;
74963;SDS011;63521;51.900;4.748;2023-02-05T08:58:40;5.60;;;1.10;;
74963;SDS011;63521;51.900;4.748;2023-02-05T09:01:07;6.15;;;1.30;;
74963;SDS011;63521;51.900;4.748;2023-02-05T09:03:37;7.90;;;1.45;;
74963;SDS011;63521;51.900;4.748;2023-02-05T09:06:06;9.57;;;1.50;;
74963;SDS011;63521;51.900;4.748;2023-02-05T09:08:33;8.75;;;2.15;;
74963;SDS011;63521;51.900;4.748;2023-02-05T09:10:59;5.78;;;1.00;;
74963;SDS011;63521;51.900;4.748;2023-02-05T09:13:24;6.53;;;1.13;;
74963;SDS011;63521;51.900;4.748;2023-02-05T09:15:49;7.97;;;1.40;;
74963;SDS011;63521;51.900;4.748;2023-02-05T09:18:15;5.90;;;1.45;;
74963;SDS011;63521;51.900;4.748;2023-02-05T09:20:44;3.45;;;0.98;;
74963;SDS011;63521;51.900;4.748;2023-02-05T09:23:12;4.13;;;0.90;;
74963;SDS011;63521;51.900;4.748;2023-02-05T09:25:38;5.95;;;1.23;;
74963;SDS011;63521;51.900;4.748;2023-02-05T09:28:05;9.07;;;1.23;;
74963;SDS011;63521;51.900;4.748;2023-02-05T09:30:34;10.43;;;1.40;;
74963;SDS011;63521;51.900;4.748;2023-02-05T09:33:00;5.57;;;1.38;;
74963;SDS011;63521;51.900;4.748;2023-02-05T09:35:25;4.85;;;1.20;;
74963;SDS011;63521;51.900;4.748;2023-02-05T09:37:51;7.63;;;1.38;;
74963;SDS011;63521;51.900;4.748;2023-02-05T09:40:20;6.35;;;1.30;;
74963;SDS011;63521;51.900;4.748;2023-02-05T09:42:52;7.38;;;1.27;;
74963;SDS011;63521;51.900;4.748;2023-02-05T09:45:53;8.05;;;1.27;;
74963;SDS011;63521;51.900;4.748;2023-02-05T09:51:13;7.22;;;1.33;;
74963;SDS011;63521;51.900;4.748;2023-02-05T09:53:43;7.50;;;1.23;;
74963;SDS011;63521;51.900;4.748;2023-02-05T09:56:11;11.40;;;1.48;;
74963;SDS011;63521;51.900;4.748;2023-02-05T09:58:39;8.88;;;1.50;;
74963;SDS011;63521;51.900;4.748;2023-02-05T10:01:11;7.63;;;1.30;;
74963;SDS011;63521;51.900;4.748;2023-02-05T10:03:42;9.30;;;1.20;;
74963;SDS011;63521;51.900;4.748;2023-02-05T10:11:48;8.70;;;1.73;;
74963;SDS011;63521;51.900;4.748;2023-02-05T10:14:20;10.30;;;1.20;;
74963;SDS011;63521;51.900;4.748;2023-02-05T10:22:34;5.65;;;1.30;;
74963;SDS011;63521;51.900;4.748;2023-02-05T10:38:14;11.93;;;1.90;;
74963;SDS011;63521;51.900;4.748;2023-02-05T10:40:41;7.45;;;1.40;;
74963;SDS011;63521;51.900;4.748;2023-02-05T10:46:52;5.85;;;1.27;;
74963;SDS011;63521;51.900;4.748;2023-02-05T10:49:23;5.57;;;1.52;;
74963;SDS011;63521;51.900;4.748;2023-02-05T10:51:51;9.38;;;1.75;;
74963;SDS011;63521;51.900;4.748;2023-02-05T10:54:38;9.80;;;1.58;;
74963;SDS011;63521;51.900;4.748;2023-02-05T10:57:03;6.50;;;1.42;;
74963;SDS011;63521;51.900;4.748;2023-02-05T10:59:29;8.70;;;1.92;;
74963;SDS011;63521;51.900;4.748;2023-02-05T11:01:56;8.45;;;1.67;;
74963;SDS011;63521;51.900;4.748;2023-02-05T11:04:30;8.73;;;1.20;;
74963;SDS011;63521;51.900;4.748;2023-02-05T11:06:59;8.02;;;1.35;;
74963;SDS011;63521;51.900;4.748;2023-02-05T11:14:59;7.57;;;1.52;;
74963;SDS011;63521;51.900;4.748;2023-02-05T11:17:33;8.35;;;1.63;;
74963;SDS011;63521;51.900;4.748;2023-02-05T11:20:06;7.78;;;1.20;;
74963;SDS011;63521;51.900;4.748;2023-02-05T11:22:46;9.55;;;1.75;;
74963;SDS011;63521;51.900;4.748;2023-02-05T11:25:19;5.20;;;1.50;;
74963;SDS011;63521;51.900;4.748;2023-02-05T11:30:31;6.70;;;1.25;;
74963;SDS011;63521;51.900;4.748;2023-02-05T11:33:15;6.85;;;1.35;;
74963;SDS011;63521;51.900;4.748;2023-02-05T11:36:06;6.90;;;1.40;;
74963;SDS011;63521;51.900;4.748;2023-02-05T11:41:12;9.60;;;1.90;;
74963;SDS011;63521;51.900;4.748;2023-02-05T11:44:18;6.32;;;1.10;;
74963;SDS011;63521;51.900;4.748;2023-02-05T11:46:47;7.22;;;1.45;;
74963;SDS011;63521;51.900;4.748;2023-02-05T11:49:19;10.52;;;1.35;;
74963;SDS011;63521;51.900;4.748;2023-02-05T11:51:46;11.02;;;1.88;;
74963;SDS011;63521;51.900;4.748;2023-02-05T11:54:25;8.48;;;1.63;;
74963;SDS011;63521;51.900;4.748;2023-02-05T11:59:37;5.55;;;1.13;;
74963;SDS011;63521;51.900;4.748;2023-02-05T12:02:17;9.38;;;1.98;;
74963;SDS011;63521;51.900;4.748;2023-02-05T12:04:55;8.90;;;1.63;;
74963;SDS011;63521;51.900;4.748;2023-02-05T12:07:39;6.18;;;1.25;;
74963;SDS011;63521;51.900;4.748;2023-02-05T12:10:53;5.68;;;1.65;;
74963;SDS011;63521;51.900;4.748;2023-02-05T12:13:16;8.68;;;1.00;;
74963;SDS011;63521;51.900;4.748;2023-02-05T12:15:52;6.25;;;1.40;;
74963;SDS011;63521;51.900;4.748;2023-02-05T12:26:38;8.52;;;1.40;;
74963;SDS011;63521;51.900;4.748;2023-02-05T12:34:59;5.50;;;1.02;;
74963;SDS011;63521;51.900;4.748;2023-02-05T12:37:48;7.75;;;1.60;;
74963;SDS011;63521;51.900;4.748;2023-02-05T12:40:29;4.65;;;1.05;;
74963;SDS011;63521;51.900;4.748;2023-02-05T12:46:26;5.88;;;1.10;;
74963;SDS011;63521;51.900;4.748;2023-02-05T12:49:19;10.10;;;1.33;;
74963;SDS011;63521;51.900;4.748;2023-02-05T12:52:16;4.65;;;1.70;;
74963;SDS011;63521;51.900;4.748;2023-02-05T13:00:03;4.40;;;1.10;;
74963;SDS011;63521;51.900;4.748;2023-02-05T13:10:30;5.43;;;1.20;;
74963;SDS011;63521;51.900;4.748;2023-02-05T13:13:04;4.25;;;1.02;;
74963;SDS011;63521;51.900;4.748;2023-02-05T13:15:43;5.20;;;0.82;;
74963;SDS011;63521;51.900;4.748;2023-02-05T13:18:15;3.67;;;0.88;;
74963;SDS011;63521;51.900;4.748;2023-02-05T13:21:04;6.15;;;1.17;;
74963;SDS011;63521;51.900;4.748;2023-02-05T13:23:49;3.50;;;1.05;;
74963;SDS011;63521;51.900;4.748;2023-02-05T13:26:40;7.28;;;1.38;;
74963;SDS011;63521;51.900;4.748;2023-02-05T13:29:33;3.20;;;0.65;;
74963;SDS011;63521;51.900;4.748;2023-02-05T13:32:08;7.68;;;1.27;;
74963;SDS011;63521;51.900;4.748;2023-02-05T13:34:35;5.50;;;1.25;;
74963;SDS011;63521;51.900;4.748;2023-02-05T13:37:08;4.90;;;1.30;;
74963;SDS011;63521;51.900;4.748;2023-02-05T13:40:02;10.00;;;1.25;;
74963;SDS011;63521;51.900;4.748;2023-02-05T13:53:41;6.43;;;1.50;;
74963;SDS011;63521;51.900;4.748;2023-02-05T14:03:58;6.10;;;1.00;;
74963;SDS011;63521;51.900;4.748;2023-02-05T14:06:55;3.05;;;0.82;;
74963;SDS011;63521;51.900;4.748;2023-02-05T14:09:33;4.45;;;1.00;;
74963;SDS011;63521;51.900;4.748;2023-02-05T14:12:00;4.15;;;0.80;;
74963;SDS011;63521;51.900;4.748;2023-02-05T14:14:32;7.07;;;1.50;;
74963;SDS011;63521;51.900;4.748;2023-02-05T14:17:00;7.28;;;1.63;;
74963;SDS011;63521;51.900;4.748;2023-02-05T14:22:10;6.57;;;1.23;;
74963;SDS011;63521;51.900;4.748;2023-02-05T14:24:47;7.47;;;0.93;;
74963;SDS011;63521;51.900;4.748;2023-02-05T14:29:55;5.93;;;1.23;;
74963;SDS011;63521;51.900;4.748;2023-02-05T14:34:59;6.55;;;0.93;;
74963;SDS011;63521;51.900;4.748;2023-02-05T14:37:27;2.65;;;1.02;;
74963;SDS011;63521;51.900;4.748;2023-02-05T14:39:55;6.45;;;1.30;;
74963;SDS011;63521;51.900;4.748;2023-02-05T14:42:21;5.03;;;1.35;;
74963;SDS011;63521;51.900;4.748;2023-02-05T14:44:51;6.38;;;1.23;;
74963;SDS011;63521;51.900;4.748;2023-02-05T14:47:22;6.18;;;1.20;;
74963;SDS011;63521;51.900;4.748;2023-02-05T14:50:01;6.50;;;1.00;;
74963;SDS011;63521;51.900;4.748;2023-02-05T14:55:26;4.45;;;0.80;;
74963;SDS011;63521;51.900;4.748;2023-02-05T14:58:08;9.93;;;1.27;;
74963;SDS011;63521;51.900;4.748;2023-02-05T15:00:45;2.60;;;0.85;;
74963;SDS011;63521;51.900;4.748;2023-02-05T15:05:39;5.25;;;1.20;;
74963;SDS011;63521;51.900;4.748;2023-02-05T15:11:16;5.65;;;1.20;;
74963;SDS011;63521;51.900;4.748;2023-02-05T15:19:50;5.53;;;1.33;;
74963;SDS011;63521;51.900;4.748;2023-02-05T15:22:33;4.35;;;0.90;;
74963;SDS011;63521;51.900;4.748;2023-02-05T15:27:39;3.25;;;1.27;;
74963;SDS011;63521;51.900;4.748;2023-02-05T15:30:06;8.57;;;1.40;;
74963;SDS011;63521;51.900;4.748;2023-02-05T15:32:44;5.95;;;1.10;;
74963;SDS011;63521;51.900;4.748;2023-02-05T15:35:17;6.63;;;1.25;;
74963;SDS011;63521;51.900;4.748;2023-02-05T15:40:11;5.90;;;1.38;;
74963;SDS011;63521;51.900;4.748;2023-02-05T15:42:43;4.00;;;1.00;;
74963;SDS011;63521;51.900;4.748;2023-02-05T15:45:29;5.15;;;1.08;;
74963;SDS011;63521;51.900;4.748;2023-02-05T15:50:34;9.70;;;1.30;;
74963;SDS011;63521;51.900;4.748;2023-02-05T15:53:02;7.18;;;1.20;;
74963;SDS011;63521;51.900;4.748;2023-02-05T15:55:29;6.30;;;1.63;;
74963;SDS011;63521;51.900;4.748;2023-02-05T15:57:56;2.78;;;0.90;;
74963;SDS011;63521;51.900;4.748;2023-02-05T16:00:26;7.22;;;1.85;;
74963;SDS011;63521;51.900;4.748;2023-02-05T16:02:54;7.85;;;1.63;;
74963;SDS011;63521;51.900;4.748;2023-02-05T16:05:22;4.82;;;1.27;;
74963;SDS011;63521;51.900;4.748;2023-02-05T16:07:48;8.57;;;1.27;;
74963;SDS011;63521;51.900;4.748;2023-02-05T16:10:23;5.85;;;1.33;;
74963;SDS011;63521;51.900;4.748;2023-02-05T16:12:57;5.57;;;1.48;;
74963;SDS011;63521;51.900;4.748;2023-02-05T16:15:24;9.15;;;1.63;;
74963;SDS011;63521;51.900;4.748;2023-02-05T16:17:52;3.72;;;1.10;;
74963;SDS011;63521;51.900;4.748;2023-02-05T16:26:53;7.15;;;1.02;;
74963;SDS011;63521;51.900;4.748;2023-02-05T16:29:31;7.50;;;1.83;;
74963;SDS011;63521;51.900;4.748;2023-02-05T16:32:02;6.18;;;1.00;;
74963;SDS011;63521;51.900;4.748;2023-02-05T16:34:30;7.15;;;2.05;;
74963;SDS011;63521;51.900;4.748;2023-02-05T16:36:55;11.40;;;2.10;;
74963;SDS011;63521;51.900;4.748;2023-02-05T16:39:27;4.93;;;1.00;;
74963;SDS011;63521;51.900;4.748;2023-02-05T16:45:52;6.72;;;1.45;;
74963;SDS011;63521;51.900;4.748;2023-02-05T16:48:30;4.90;;;1.15;;
74963;SDS011;63521;51.900;4.748;2023-02-05T16:50:56;5.03;;;1.20;;
74963;SDS011;63521;51.900;4.748;2023-02-05T16:53:23;6.53;;;1.60;;
74963;SDS011;63521;51.900;4.748;2023-02-05T16:55:54;4.38;;;0.98;;
74963;SDS011;63521;51.900;4.748;2023-02-05T16:58:26;6.72;;;1.30;;
74963;SDS011;63521;51.900;4.748;2023-02-05T17:00:56;5.75;;;1.10;;
74963;SDS011;63521;51.900;4.748;2023-02-05T17:03:22;5.07;;;1.20;;
74963;SDS011;63521;51.900;4.748;2023-02-05T17:05:53;4.78;;;1.17;;
74963;SDS011;63521;51.900;4.748;2023-02-05T17:08:25;5.32;;;1.00;;
74963;SDS011;63521;51.900;4.748;2023-02-05T17:11:01;4.20;;;1.30;;
74963;SDS011;63521;51.900;4.748;2023-02-05T17:15:56;5.40;;;0.90;;
74963;SDS011;63521;51.900;4.748;2023-02-05T17:19:02;3.80;;;1.40;;
74963;SDS011;63521;51.900;4.748;2023-02-05T17:21:46;4.57;;;1.10;;
74963;SDS011;63521;51.900;4.748;2023-02-05T17:24:11;3.58;;;0.95;;
74963;SDS011;63521;51.900;4.748;2023-02-05T17:26:39;3.78;;;1.17;;
74963;SDS011;63521;51.900;4.748;2023-02-05T17:29:07;4.15;;;1.42;;
74963;SDS011;63521;51.900;4.748;2023-02-05T17:31:34;4.90;;;1.38;;
74963;SDS011;63521;51.900;4.748;2023-02-05T17:34:01;3.03;;;1.05;;
74963;SDS011;63521;51.900;4.748;2023-02-05T17:36:26;7.10;;;1.60;;
74963;SDS011;63521;51.900;4.748;2023-02-05T17:38:52;9.25;;;1.40;;
74963;SDS011;63521;51.900;4.748;2023-02-05T17:41:21;4.40;;;1.08;;
74963;SDS011;63521;51.900;4.748;2023-02-05T17:46:34;3.72;;;1.20;;
74963;SDS011;63521;51.900;4.748;2023-02-05T17:48:59;4.25;;;1.20;;
74963;SDS011;63521;51.900;4.748;2023-02-05T17:51:25;5.70;;;1.30;;
74963;SDS011;63521;51.900;4.748;2023-02-05T17:53:50;5.40;;;1.60;;
74963;SDS011;63521;51.900;4.748;2023-02-05T17:56:16;3.65;;;1.40;;
74963;SDS011;63521;51.900;4.748;2023-02-05T17:58:43;8.25;;;1.20;;
74963;SDS011;63521;51.900;4.748;2023-02-05T18:01:09;4.93;;;1.15;;
74963;SDS011;63521;51.900;4.748;2023-02-05T18:03:36;8.32;;;1.88;;
74963;SDS011;63521;51.900;4.748;2023-02-05T18:06:01;7.60;;;1.25;;
74963;SDS011;63521;51.900;4.748;2023-02-05T18:08:27;9.90;;;1.75;;
74963;SDS011;63521;51.900;4.748;2023-02-05T18:10:53;3.83;;;1.13;;
74963;SDS011;63521;51.900;4.748;2023-02-05T18:13:19;3.38;;;1.08;;